sensor_id;sensor_type;location;lat;lon;timestamp;temperature;humidity
22974;DHT22;11653;50.848;4.584;2023-01-08T00:00:45;12.10;99.90
22974;DHT22;11653;50.848;4.584;2023-01-08T00:03:12;12.10;99.90
22974;DHT22;11653;50.848;4.584;2023-01-08T00:05:38;12.10;99.90
22974;DHT22;11653;50.848;4.584;2023-01-08T00:08:04;12.10;99.90
22974;DHT22;11653;50.848;4.584;2023-01-08T00:10:30;12.10;99.90
22974;DHT22;11653;50.848;4.584;2023-01-08T00:12:56;12.20;99.90
22974;DHT22;11653;50.848;4.584;2023-01-08T00:15:22;12.20;99.90
22974;DHT22;11653;50.848;4.584;2023-01-08T00:17:47;12.20;99.90
22974;DHT22;11653;50.848;4.584;2023-01-08T00:20:13;12.30;99.90
22974;DHT22;11653;50.848;4.584;2023-01-08T00:22:40;12.20;99.90
22974;DHT22;11653;50.848;4.584;2023-01-08T00:25:12;12.20;99.90
22974;DHT22;11653;50.848;4.584;2023-01-08T00:27:38;12.20;99.90
22974;DHT22;11653;50.848;4.584;2023-01-08T00:30:04;12.20;99.90
22974;DHT22;11653;50.848;4.584;2023-01-08T00:32:29;12.10;99.90
22974;DHT22;11653;50.848;4.584;2023-01-08T00:34:55;12.10;99.90
22974;DHT22;11653;50.848;4.584;2023-01-08T00:37:21;12.20;99.90
22974;DHT22;11653;50.848;4.584;2023-01-08T00:39:47;12.20;99.90
22974;DHT22;11653;50.848;4.584;2023-01-08T00:42:13;12.30;99.90
22974;DHT22;11653;50.848;4.584;2023-01-08T00:44:38;12.40;99.90
22974;DHT22;11653;50.848;4.584;2023-01-08T00:47:04;12.40;99.90
22974;DHT22;11653;50.848;4.584;2023-01-08T00:49:29;12.40;99.90
22974;DHT22;11653;50.848;4.584;2023-01-08T00:51:55;12.20;99.90
22974;DHT22;11653;50.848;4.584;2023-01-08T00:54:21;11.70;99.90
22974;DHT22;11653;50.848;4.584;2023-01-08T00:56:47;11.20;99.90
22974;DHT22;11653;50.848;4.584;2023-01-08T00:59:13;11.20;99.90
22974;DHT22;11653;50.848;4.584;2023-01-08T01:01:38;11.00;99.90
22974;DHT22;11653;50.848;4.584;2023-01-08T01:04:04;10.90;99.90
22974;DHT22;11653;50.848;4.584;2023-01-08T01:06:30;10.90;99.90
22974;DHT22;11653;50.848;4.584;2023-01-08T01:08:55;10.90;99.90
22974;DHT22;11653;50.848;4.584;2023-01-08T01:11:26;10.80;99.90
22974;DHT22;11653;50.848;4.584;2023-01-08T01:13:54;10.60;99.90
22974;DHT22;11653;50.848;4.584;2023-01-08T01:16:21;10.40;99.90
22974;DHT22;11653;50.848;4.584;2023-01-08T01:18:47;10.30;99.90
22974;DHT22;11653;50.848;4.584;2023-01-08T01:21:25;10.20;99.90
22974;DHT22;11653;50.848;4.584;2023-01-08T01:24:00;10.20;99.90
22974;DHT22;11653;50.848;4.584;2023-01-08T01:26:27;10.10;99.90
22974;DHT22;11653;50.848;4.584;2023-01-08T01:28:54;10.00;99.90
22974;DHT22;11653;50.848;4.584;2023-01-08T01:31:21;9.90;99.90
22974;DHT22;11653;50.848;4.584;2023-01-08T01:33:49;9.90;99.90
22974;DHT22;11653;50.848;4.584;2023-01-08T01:36:16;9.90;99.90
22974;DHT22;11653;50.848;4.584;2023-01-08T01:38:44;9.90;99.90
22974;DHT22;11653;50.848;4.584;2023-01-08T01:41:40;10.00;99.90
22974;DHT22;11653;50.848;4.584;2023-01-08T01:44:35;10.00;99.90
22974;DHT22;11653;50.848;4.584;2023-01-08T01:47:25;10.10;99.90
22974;DHT22;11653;50.848;4.584;2023-01-08T01:52:44;10.00;99.90
22974;DHT22;11653;50.848;4.584;2023-01-08T01:55:12;10.00;99.90
22974;DHT22;11653;50.848;4.584;2023-01-08T01:57:38;10.00;99.90
22974;DHT22;11653;50.848;4.584;2023-01-08T02:00:06;10.00;99.90
22974;DHT22;11653;50.848;4.584;2023-01-08T02:02:33;10.10;99.90
22974;DHT22;11653;50.848;4.584;2023-01-08T02:05:00;10.10;99.90
22974;DHT22;11653;50.848;4.584;2023-01-08T02:07:29;10.10;99.90
22974;DHT22;11653;50.848;4.584;2023-01-08T02:12:55;10.10;99.90
22974;DHT22;11653;50.848;4.584;2023-01-08T02:18:20;10.20;99.90
22974;DHT22;11653;50.848;4.584;2023-01-08T02:21:13;10.30;99.90
22974;DHT22;11653;50.848;4.584;2023-01-08T02:28:57;10.40;99.90
22974;DHT22;11653;50.848;4.584;2023-01-08T02:31:24;10.60;99.90
22974;DHT22;11653;50.848;4.584;2023-01-08T02:33:51;10.60;99.90
22974;DHT22;11653;50.848;4.584;2023-01-08T02:36:32;10.50;99.90
22974;DHT22;11653;50.848;4.584;2023-01-08T02:39:10;10.60;99.90
22974;DHT22;11653;50.848;4.584;2023-01-08T02:44:43;10.60;99.90
22974;DHT22;11653;50.848;4.584;2023-01-08T02:47:58;10.70;99.90
22974;DHT22;11653;50.848;4.584;2023-01-08T02:50:09;10.70;99.90
22974;DHT22;11653;50.848;4.584;2023-01-08T02:52:42;10.80;99.90
22974;DHT22;11653;50.848;4.584;2023-01-08T02:55:10;10.90;99.90
22974;DHT22;11653;50.848;4.584;2023-01-08T02:57:37;11.20;99.90
22974;DHT22;11653;50.848;4.584;2023-01-08T03:00:04;11.20;99.90
22974;DHT22;11653;50.848;4.584;2023-01-08T03:02:32;11.20;99.90
22974;DHT22;11653;50.848;4.584;2023-01-08T03:05:05;11.10;99.90
22974;DHT22;11653;50.848;4.584;2023-01-08T03:07:31;10.80;99.90
22974;DHT22;11653;50.848;4.584;2023-01-08T03:09:58;10.50;99.90
22974;DHT22;11653;50.848;4.584;2023-01-08T03:13:09;10.40;99.90
22974;DHT22;11653;50.848;4.584;2023-01-08T03:15:21;10.40;99.90
22974;DHT22;11653;50.848;4.584;2023-01-08T03:17:49;10.40;99.90
22974;DHT22;11653;50.848;4.584;2023-01-08T03:20:20;10.40;99.90
22974;DHT22;11653;50.848;4.584;2023-01-08T03:22:50;10.40;99.90
22974;DHT22;11653;50.848;4.584;2023-01-08T03:25:19;10.40;99.90
22974;DHT22;11653;50.848;4.584;2023-01-08T03:27:52;10.50;99.90
22974;DHT22;11653;50.848;4.584;2023-01-08T03:30:20;10.50;99.90
22974;DHT22;11653;50.848;4.584;2023-01-08T03:32:46;10.50;99.90
22974;DHT22;11653;50.848;4.584;2023-01-08T03:35:15;10.60;99.90
22974;DHT22;11653;50.848;4.584;2023-01-08T03:37:48;10.60;99.90
22974;DHT22;11653;50.848;4.584;2023-01-08T03:40:20;10.60;99.90
22974;DHT22;11653;50.848;4.584;2023-01-08T03:42:46;10.70;99.90
22974;DHT22;11653;50.848;4.584;2023-01-08T03:45:12;10.70;99.90
22974;DHT22;11653;50.848;4.584;2023-01-08T03:47:38;10.60;99.90
22974;DHT22;11653;50.848;4.584;2023-01-08T03:50:08;10.50;99.90
22974;DHT22;11653;50.848;4.584;2023-01-08T03:52:34;10.50;99.90
22974;DHT22;11653;50.848;4.584;2023-01-08T03:55:00;10.50;99.90
22974;DHT22;11653;50.848;4.584;2023-01-08T03:57:26;10.40;99.90
22974;DHT22;11653;50.848;4.584;2023-01-08T03:59:51;10.40;99.90
22974;DHT22;11653;50.848;4.584;2023-01-08T04:02:17;10.40;99.90
22974;DHT22;11653;50.848;4.584;2023-01-08T04:04:43;10.50;99.90
22974;DHT22;11653;50.848;4.584;2023-01-08T04:07:10;10.40;99.90
22974;DHT22;11653;50.848;4.584;2023-01-08T04:09:37;10.40;99.90
22974;DHT22;11653;50.848;4.584;2023-01-08T04:12:03;10.40;99.90
22974;DHT22;11653;50.848;4.584;2023-01-08T04:14:28;10.40;99.90
22974;DHT22;11653;50.848;4.584;2023-01-08T04:16:54;10.30;99.90
22974;DHT22;11653;50.848;4.584;2023-01-08T04:19:20;10.20;99.90
22974;DHT22;11653;50.848;4.584;2023-01-08T04:21:45;10.30;99.90
22974;DHT22;11653;50.848;4.584;2023-01-08T04:24:14;10.40;99.90
22974;DHT22;11653;50.848;4.584;2023-01-08T04:26:39;10.30;99.90
22974;DHT22;11653;50.848;4.584;2023-01-08T04:29:05;10.40;99.90
22974;DHT22;11653;50.848;4.584;2023-01-08T04:31:31;10.30;99.90
22974;DHT22;11653;50.848;4.584;2023-01-08T04:33:57;10.40;99.90
22974;DHT22;11653;50.848;4.584;2023-01-08T04:36:22;10.30;99.90
22974;DHT22;11653;50.848;4.584;2023-01-08T04:38:48;10.30;99.90
22974;DHT22;11653;50.848;4.584;2023-01-08T04:41:13;10.20;99.90
22974;DHT22;11653;50.848;4.584;2023-01-08T04:43:42;10.30;99.90
22974;DHT22;11653;50.848;4.584;2023-01-08T04:46:08;10.30;99.90
22974;DHT22;11653;50.848;4.584;2023-01-08T04:48:34;10.20;99.90
22974;DHT22;11653;50.848;4.584;2023-01-08T04:51:00;10.20;99.90
22974;DHT22;11653;50.848;4.584;2023-01-08T04:53:27;10.10;99.90
22974;DHT22;11653;50.848;4.584;2023-01-08T04:55:53;10.00;99.90
22974;DHT22;11653;50.848;4.584;2023-01-08T04:58:19;10.00;99.90
22974;DHT22;11653;50.848;4.584;2023-01-08T05:00:45;10.00;99.90
22974;DHT22;11653;50.848;4.584;2023-01-08T05:03:11;9.90;99.90
22974;DHT22;11653;50.848;4.584;2023-01-08T05:05:37;9.90;99.90
22974;DHT22;11653;50.848;4.584;2023-01-08T05:08:02;9.70;99.90
22974;DHT22;11653;50.848;4.584;2023-01-08T05:10:28;9.70;99.90
22974;DHT22;11653;50.848;4.584;2023-01-08T05:12:58;9.60;99.90
22974;DHT22;11653;50.848;4.584;2023-01-08T05:15:24;9.60;99.90
22974;DHT22;11653;50.848;4.584;2023-01-08T05:17:57;9.60;99.90
22974;DHT22;11653;50.848;4.584;2023-01-08T05:20:23;9.50;99.90
22974;DHT22;11653;50.848;4.584;2023-01-08T05:22:49;9.40;99.90
22974;DHT22;11653;50.848;4.584;2023-01-08T05:25:14;9.40;99.90
22974;DHT22;11653;50.848;4.584;2023-01-08T05:27:40;9.50;99.90
22974;DHT22;11653;50.848;4.584;2023-01-08T05:30:06;9.40;99.90
22974;DHT22;11653;50.848;4.584;2023-01-08T05:32:32;9.40;99.90
22974;DHT22;11653;50.848;4.584;2023-01-08T05:34:58;9.30;99.90
22974;DHT22;11653;50.848;4.584;2023-01-08T05:37:23;9.20;99.90
22974;DHT22;11653;50.848;4.584;2023-01-08T05:39:49;9.10;99.90
22974;DHT22;11653;50.848;4.584;2023-01-08T05:42:14;9.10;99.90
22974;DHT22;11653;50.848;4.584;2023-01-08T05:44:40;9.10;99.90
22974;DHT22;11653;50.848;4.584;2023-01-08T05:47:06;9.10;99.90
22974;DHT22;11653;50.848;4.584;2023-01-08T05:49:31;9.20;99.90
22974;DHT22;11653;50.848;4.584;2023-01-08T05:51:57;9.10;99.90
22974;DHT22;11653;50.848;4.584;2023-01-08T05:54:22;9.10;99.90
22974;DHT22;11653;50.848;4.584;2023-01-08T05:56:48;9.00;99.90
22974;DHT22;11653;50.848;4.584;2023-01-08T05:59:14;8.90;99.90
22974;DHT22;11653;50.848;4.584;2023-01-08T06:01:39;8.90;99.90
22974;DHT22;11653;50.848;4.584;2023-01-08T06:04:05;8.80;99.90
22974;DHT22;11653;50.848;4.584;2023-01-08T06:06:31;8.90;99.90
22974;DHT22;11653;50.848;4.584;2023-01-08T06:08:57;8.80;99.90
22974;DHT22;11653;50.848;4.584;2023-01-08T06:11:22;8.80;99.90
22974;DHT22;11653;50.848;4.584;2023-01-08T06:13:48;8.70;99.90
22974;DHT22;11653;50.848;4.584;2023-01-08T06:16:13;8.70;99.90
22974;DHT22;11653;50.848;4.584;2023-01-08T06:18:39;8.70;99.90
22974;DHT22;11653;50.848;4.584;2023-01-08T06:21:05;8.70;99.90
22974;DHT22;11653;50.848;4.584;2023-01-08T06:23:31;8.70;99.90
22974;DHT22;11653;50.848;4.584;2023-01-08T06:25:58;8.70;99.90
22974;DHT22;11653;50.848;4.584;2023-01-08T06:28:25;8.50;99.90
22974;DHT22;11653;50.848;4.584;2023-01-08T06:30:51;8.60;99.90
22974;DHT22;11653;50.848;4.584;2023-01-08T06:33:17;8.60;99.90
22974;DHT22;11653;50.848;4.584;2023-01-08T06:35:43;8.60;99.90
22974;DHT22;11653;50.848;4.584;2023-01-08T06:38:09;8.60;99.90
22974;DHT22;11653;50.848;4.584;2023-01-08T06:40:35;8.60;99.90
22974;DHT22;11653;50.848;4.584;2023-01-08T06:43:04;8.60;99.90
22974;DHT22;11653;50.848;4.584;2023-01-08T06:45:31;8.60;99.90
22974;DHT22;11653;50.848;4.584;2023-01-08T06:48:04;8.60;99.90
22974;DHT22;11653;50.848;4.584;2023-01-08T06:50:32;8.60;99.90
22974;DHT22;11653;50.848;4.584;2023-01-08T06:52:58;8.60;99.90
22974;DHT22;11653;50.848;4.584;2023-01-08T06:55:26;8.70;99.90
22974;DHT22;11653;50.848;4.584;2023-01-08T06:57:55;8.70;99.90
22974;DHT22;11653;50.848;4.584;2023-01-08T07:00:21;8.60;99.90
22974;DHT22;11653;50.848;4.584;2023-01-08T07:02:51;8.70;99.90
22974;DHT22;11653;50.848;4.584;2023-01-08T07:05:17;8.70;99.90
22974;DHT22;11653;50.848;4.584;2023-01-08T07:07:43;8.70;99.90
22974;DHT22;11653;50.848;4.584;2023-01-08T07:10:09;8.70;99.90
22974;DHT22;11653;50.848;4.584;2023-01-08T07:12:35;8.70;99.90
22974;DHT22;11653;50.848;4.584;2023-01-08T07:15:01;8.70;99.90
22974;DHT22;11653;50.848;4.584;2023-01-08T07:17:27;8.80;99.90
22974;DHT22;11653;50.848;4.584;2023-01-08T07:19:52;8.80;99.90
22974;DHT22;11653;50.848;4.584;2023-01-08T07:22:18;8.80;99.90
22974;DHT22;11653;50.848;4.584;2023-01-08T07:24:45;8.90;99.90
22974;DHT22;11653;50.848;4.584;2023-01-08T07:27:11;8.90;99.90
22974;DHT22;11653;50.848;4.584;2023-01-08T07:29:36;9.00;99.90
22974;DHT22;11653;50.848;4.584;2023-01-08T07:32:02;9.00;99.90
22974;DHT22;11653;50.848;4.584;2023-01-08T07:34:28;9.00;99.90
22974;DHT22;11653;50.848;4.584;2023-01-08T07:36:54;9.10;99.90
22974;DHT22;11653;50.848;4.584;2023-01-08T07:39:19;9.00;99.90
22974;DHT22;11653;50.848;4.584;2023-01-08T07:41:45;9.00;99.90
22974;DHT22;11653;50.848;4.584;2023-01-08T07:44:11;9.10;99.90
22974;DHT22;11653;50.848;4.584;2023-01-08T07:46:37;9.10;99.90
22974;DHT22;11653;50.848;4.584;2023-01-08T07:49:02;9.20;99.90
22974;DHT22;11653;50.848;4.584;2023-01-08T07:51:29;9.30;99.90
22974;DHT22;11653;50.848;4.584;2023-01-08T07:53:54;9.30;99.90
22974;DHT22;11653;50.848;4.584;2023-01-08T07:56:21;9.40;99.90
22974;DHT22;11653;50.848;4.584;2023-01-08T07:58:47;9.40;99.90
22974;DHT22;11653;50.848;4.584;2023-01-08T08:01:14;9.40;99.90
22974;DHT22;11653;50.848;4.584;2023-01-08T08:03:40;9.40;99.90
22974;DHT22;11653;50.848;4.584;2023-01-08T08:06:06;9.50;99.90
22974;DHT22;11653;50.848;4.584;2023-01-08T08:08:32;9.50;99.90
22974;DHT22;11653;50.848;4.584;2023-01-08T08:10:58;9.50;99.90
22974;DHT22;11653;50.848;4.584;2023-01-08T08:13:24;9.60;99.90
22974;DHT22;11653;50.848;4.584;2023-01-08T08:15:49;9.50;99.90
22974;DHT22;11653;50.848;4.584;2023-01-08T08:18:15;9.60;99.90
22974;DHT22;11653;50.848;4.584;2023-01-08T08:20:41;9.70;99.90
22974;DHT22;11653;50.848;4.584;2023-01-08T08:23:11;9.70;99.90
22974;DHT22;11653;50.848;4.584;2023-01-08T08:25:41;9.70;99.90
22974;DHT22;11653;50.848;4.584;2023-01-08T08:28:09;9.80;99.90
22974;DHT22;11653;50.848;4.584;2023-01-08T08:30:36;9.80;99.90
22974;DHT22;11653;50.848;4.584;2023-01-08T08:33:04;9.90;99.90
22974;DHT22;11653;50.848;4.584;2023-01-08T08:35:30;10.00;99.90
22974;DHT22;11653;50.848;4.584;2023-01-08T08:37:57;10.00;99.90
22974;DHT22;11653;50.848;4.584;2023-01-08T08:40:23;10.10;99.90
22974;DHT22;11653;50.848;4.584;2023-01-08T08:42:55;10.10;99.90
22974;DHT22;11653;50.848;4.584;2023-01-08T08:45:20;10.20;99.90
22974;DHT22;11653;50.848;4.584;2023-01-08T08:47:46;10.20;99.90
22974;DHT22;11653;50.848;4.584;2023-01-08T08:50:12;10.20;99.90
22974;DHT22;11653;50.848;4.584;2023-01-08T08:52:37;10.20;99.90
22974;DHT22;11653;50.848;4.584;2023-01-08T08:55:03;10.30;99.90
22974;DHT22;11653;50.848;4.584;2023-01-08T08:57:29;10.20;99.90
22974;DHT22;11653;50.848;4.584;2023-01-08T08:59:54;10.20;99.90
22974;DHT22;11653;50.848;4.584;2023-01-08T09:02:20;10.20;99.90
22974;DHT22;11653;50.848;4.584;2023-01-08T09:04:46;10.30;99.90
22974;DHT22;11653;50.848;4.584;2023-01-08T09:07:11;10.40;99.90
22974;DHT22;11653;50.848;4.584;2023-01-08T09:09:37;10.30;99.90
22974;DHT22;11653;50.848;4.584;2023-01-08T09:12:03;10.30;99.90
22974;DHT22;11653;50.848;4.584;2023-01-08T09:14:28;10.40;99.90
22974;DHT22;11653;50.848;4.584;2023-01-08T09:16:54;10.30;99.90
22974;DHT22;11653;50.848;4.584;2023-01-08T09:19:20;10.30;99.90
22974;DHT22;11653;50.848;4.584;2023-01-08T09:21:47;10.30;99.90
22974;DHT22;11653;50.848;4.584;2023-01-08T09:24:13;10.30;99.90
22974;DHT22;11653;50.848;4.584;2023-01-08T09:26:39;10.20;99.90
22974;DHT22;11653;50.848;4.584;2023-01-08T09:29:04;10.30;99.90
22974;DHT22;11653;50.848;4.584;2023-01-08T09:31:30;10.20;99.90
22974;DHT22;11653;50.848;4.584;2023-01-08T09:33:56;10.20;99.90
22974;DHT22;11653;50.848;4.584;2023-01-08T09:36:21;10.30;99.90
22974;DHT22;11653;50.848;4.584;2023-01-08T09:38:47;10.40;99.90
22974;DHT22;11653;50.848;4.584;2023-01-08T09:41:27;10.50;99.90
22974;DHT22;11653;50.848;4.584;2023-01-08T09:43:55;10.50;99.90
22974;DHT22;11653;50.848;4.584;2023-01-08T09:46:26;10.50;99.90
22974;DHT22;11653;50.848;4.584;2023-01-08T09:48:58;10.50;99.90
22974;DHT22;11653;50.848;4.584;2023-01-08T09:51:33;10.50;99.90
22974;DHT22;11653;50.848;4.584;2023-01-08T09:53:59;10.60;99.90
22974;DHT22;11653;50.848;4.584;2023-01-08T09:56:26;10.70;99.90
22974;DHT22;11653;50.848;4.584;2023-01-08T09:58:52;10.70;99.90
22974;DHT22;11653;50.848;4.584;2023-01-08T10:01:57;10.80;99.90
22974;DHT22;11653;50.848;4.584;2023-01-08T10:04:24;10.70;99.90
22974;DHT22;11653;50.848;4.584;2023-01-08T10:07:01;10.90;99.90
22974;DHT22;11653;50.848;4.584;2023-01-08T10:09:31;10.90;99.90
22974;DHT22;11653;50.848;4.584;2023-01-08T10:12:00;11.00;99.90
22974;DHT22;11653;50.848;4.584;2023-01-08T10:14:38;11.00;99.90
22974;DHT22;11653;50.848;4.584;2023-01-08T10:19:44;11.30;99.90
22974;DHT22;11653;50.848;4.584;2023-01-08T10:22:19;11.40;99.90
22974;DHT22;11653;50.848;4.584;2023-01-08T10:24:46;11.50;99.90
22974;DHT22;11653;50.848;4.584;2023-01-08T10:27:21;11.60;99.90
22974;DHT22;11653;50.848;4.584;2023-01-08T10:29:50;11.70;99.90
22974;DHT22;11653;50.848;4.584;2023-01-08T10:32:27;11.70;99.90
22974;DHT22;11653;50.848;4.584;2023-01-08T10:34:55;11.80;99.90
22974;DHT22;11653;50.848;4.584;2023-01-08T10:39:51;12.00;99.90
22974;DHT22;11653;50.848;4.584;2023-01-08T10:42:19;12.10;99.90
22974;DHT22;11653;50.848;4.584;2023-01-08T10:44:58;12.00;99.90
22974;DHT22;11653;50.848;4.584;2023-01-08T10:47:26;12.00;99.90
22974;DHT22;11653;50.848;4.584;2023-01-08T10:49:54;12.00;99.90
22974;DHT22;11653;50.848;4.584;2023-01-08T10:52:29;12.10;99.90
22974;DHT22;11653;50.848;4.584;2023-01-08T10:57:55;12.50;99.90
22974;DHT22;11653;50.848;4.584;2023-01-08T11:00:26;12.60;99.90
22974;DHT22;11653;50.848;4.584;2023-01-08T11:02:53;12.70;99.90
22974;DHT22;11653;50.848;4.584;2023-01-08T11:05:19;12.70;99.90
22974;DHT22;11653;50.848;4.584;2023-01-08T11:07:56;12.70;99.90
22974;DHT22;11653;50.848;4.584;2023-01-08T11:10:24;12.60;99.90
22974;DHT22;11653;50.848;4.584;2023-01-08T11:12:58;12.60;99.90
22974;DHT22;11653;50.848;4.584;2023-01-08T11:15:33;12.50;99.90
22974;DHT22;11653;50.848;4.584;2023-01-08T11:18:15;12.40;99.90
22974;DHT22;11653;50.848;4.584;2023-01-08T11:20:42;12.20;99.90
22974;DHT22;11653;50.848;4.584;2023-01-08T11:23:15;12.00;99.90
22974;DHT22;11653;50.848;4.584;2023-01-08T11:29:05;12.10;99.90
22974;DHT22;11653;50.848;4.584;2023-01-08T11:31:33;12.20;99.90
22974;DHT22;11653;50.848;4.584;2023-01-08T11:34:30;12.90;99.90
22974;DHT22;11653;50.848;4.584;2023-01-08T11:37:13;13.80;99.90
22974;DHT22;11653;50.848;4.584;2023-01-08T11:39:44;14.60;99.90
22974;DHT22;11653;50.848;4.584;2023-01-08T11:43:13;15.20;99.90
22974;DHT22;11653;50.848;4.584;2023-01-08T11:45:26;15.30;99.90
22974;DHT22;11653;50.848;4.584;2023-01-08T11:51:36;14.60;99.90
22974;DHT22;11653;50.848;4.584;2023-01-08T12:02:52;13.20;99.90
22974;DHT22;11653;50.848;4.584;2023-01-08T12:11:06;13.90;99.90
22974;DHT22;11653;50.848;4.584;2023-01-08T12:27:24;14.60;99.90
22974;DHT22;11653;50.848;4.584;2023-01-08T12:30:17;14.30;99.90
22974;DHT22;11653;50.848;4.584;2023-01-08T12:32:53;13.90;99.90
22974;DHT22;11653;50.848;4.584;2023-01-08T12:35:27;13.50;99.90
22974;DHT22;11653;50.848;4.584;2023-01-08T12:38:48;13.30;99.90
22974;DHT22;11653;50.848;4.584;2023-01-08T12:41:13;12.90;99.90
22974;DHT22;11653;50.848;4.584;2023-01-08T12:43:54;12.70;99.90
22974;DHT22;11653;50.848;4.584;2023-01-08T12:46:22;12.60;99.90
22974;DHT22;11653;50.848;4.584;2023-01-08T12:48:50;12.60;99.90
22974;DHT22;11653;50.848;4.584;2023-01-08T12:52:01;12.60;99.90
22974;DHT22;11653;50.848;4.584;2023-01-08T12:54:54;12.60;99.90
22974;DHT22;11653;50.848;4.584;2023-01-08T12:57:38;12.60;99.90
22974;DHT22;11653;50.848;4.584;2023-01-08T13:03:13;12.50;99.90
22974;DHT22;11653;50.848;4.584;2023-01-08T13:05:44;12.40;99.90
22974;DHT22;11653;50.848;4.584;2023-01-08T13:08:30;12.50;99.90
22974;DHT22;11653;50.848;4.584;2023-01-08T13:10:56;12.50;99.90
22974;DHT22;11653;50.848;4.584;2023-01-08T13:13:31;12.50;99.90
22974;DHT22;11653;50.848;4.584;2023-01-08T13:18:36;12.50;99.90
22974;DHT22;11653;50.848;4.584;2023-01-08T13:21:03;12.60;99.90
22974;DHT22;11653;50.848;4.584;2023-01-08T13:23:32;12.70;99.90
22974;DHT22;11653;50.848;4.584;2023-01-08T13:26:00;12.90;99.90
22974;DHT22;11653;50.848;4.584;2023-01-08T13:28:42;13.10;99.90
22974;DHT22;11653;50.848;4.584;2023-01-08T13:33:48;13.10;99.90
22974;DHT22;11653;50.848;4.584;2023-01-08T13:36:22;13.10;99.90
22974;DHT22;11653;50.848;4.584;2023-01-08T13:41:36;13.10;99.90
22974;DHT22;11653;50.848;4.584;2023-01-08T13:44:27;13.10;99.90
22974;DHT22;11653;50.848;4.584;2023-01-08T13:46:59;13.10;99.90
22974;DHT22;11653;50.848;4.584;2023-01-08T13:49:34;12.90;99.90
22974;DHT22;11653;50.848;4.584;2023-01-08T13:52:00;12.80;99.90
22974;DHT22;11653;50.848;4.584;2023-01-08T13:54:36;12.90;99.90
22974;DHT22;11653;50.848;4.584;2023-01-08T13:57:15;12.90;99.90
22974;DHT22;11653;50.848;4.584;2023-01-08T13:59:48;12.80;99.90
22974;DHT22;11653;50.848;4.584;2023-01-08T14:02:32;12.80;99.90
22974;DHT22;11653;50.848;4.584;2023-01-08T14:05:00;12.60;99.90
22974;DHT22;11653;50.848;4.584;2023-01-08T14:07:27;12.60;99.90
22974;DHT22;11653;50.848;4.584;2023-01-08T14:09:53;12.40;99.90
22974;DHT22;11653;50.848;4.584;2023-01-08T14:12:23;12.40;99.90
22974;DHT22;11653;50.848;4.584;2023-01-08T14:14:54;12.30;99.90
22974;DHT22;11653;50.848;4.584;2023-01-08T14:17:24;12.20;99.90
22974;DHT22;11653;50.848;4.584;2023-01-08T14:19:52;12.10;99.90
22974;DHT22;11653;50.848;4.584;2023-01-08T14:22:25;12.00;99.90
22974;DHT22;11653;50.848;4.584;2023-01-08T14:24:57;12.10;99.90
22974;DHT22;11653;50.848;4.584;2023-01-08T14:27:28;12.20;99.90
22974;DHT22;11653;50.848;4.584;2023-01-08T14:29:55;12.00;99.90
22974;DHT22;11653;50.848;4.584;2023-01-08T14:32:30;12.10;99.90
22974;DHT22;11653;50.848;4.584;2023-01-08T14:34:57;12.20;99.90
22974;DHT22;11653;50.848;4.584;2023-01-08T14:37:24;12.20;99.90
22974;DHT22;11653;50.848;4.584;2023-01-08T14:39:49;12.10;99.90
22974;DHT22;11653;50.848;4.584;2023-01-08T14:42:25;12.10;99.90
22974;DHT22;11653;50.848;4.584;2023-01-08T14:45:22;12.10;99.90
22974;DHT22;11653;50.848;4.584;2023-01-08T14:47:54;12.00;99.90
22974;DHT22;11653;50.848;4.584;2023-01-08T14:52:51;12.00;99.90
22974;DHT22;11653;50.848;4.584;2023-01-08T14:55:18;11.80;99.90
22974;DHT22;11653;50.848;4.584;2023-01-08T14:57:47;11.80;99.90
22974;DHT22;11653;50.848;4.584;2023-01-08T15:00:29;11.80;99.90
22974;DHT22;11653;50.848;4.584;2023-01-08T15:02:55;11.70;99.90
22974;DHT22;11653;50.848;4.584;2023-01-08T15:05:29;11.60;99.90
22974;DHT22;11653;50.848;4.584;2023-01-08T15:10:34;11.50;99.90
22974;DHT22;11653;50.848;4.584;2023-01-08T15:13:01;11.50;99.90
22974;DHT22;11653;50.848;4.584;2023-01-08T15:15:30;11.40;99.90
22974;DHT22;11653;50.848;4.584;2023-01-08T15:17:56;11.40;99.90
22974;DHT22;11653;50.848;4.584;2023-01-08T15:20:27;11.30;99.90
22974;DHT22;11653;50.848;4.584;2023-01-08T15:22:53;11.30;99.90
22974;DHT22;11653;50.848;4.584;2023-01-08T15:25:27;11.40;99.90
22974;DHT22;11653;50.848;4.584;2023-01-08T15:28:03;11.40;99.90
22974;DHT22;11653;50.848;4.584;2023-01-08T15:30:37;11.40;99.90
22974;DHT22;11653;50.848;4.584;2023-01-08T15:33:24;11.40;99.90
22974;DHT22;11653;50.848;4.584;2023-01-08T15:35:51;11.40;99.90
22974;DHT22;11653;50.848;4.584;2023-01-08T15:38:17;11.40;99.90
22974;DHT22;11653;50.848;4.584;2023-01-08T15:40:45;11.30;99.90
22974;DHT22;11653;50.848;4.584;2023-01-08T15:43:13;11.40;99.90
22974;DHT22;11653;50.848;4.584;2023-01-08T15:45:41;11.50;99.90
22974;DHT22;11653;50.848;4.584;2023-01-08T15:48:09;11.40;99.90
22974;DHT22;11653;50.848;4.584;2023-01-08T15:50:36;11.50;99.90
22974;DHT22;11653;50.848;4.584;2023-01-08T15:53:04;11.40;99.90
22974;DHT22;11653;50.848;4.584;2023-01-08T15:55:32;11.50;99.90
22974;DHT22;11653;50.848;4.584;2023-01-08T15:57:58;11.50;99.90
22974;DHT22;11653;50.848;4.584;2023-01-08T16:00:25;11.40;99.90
22974;DHT22;11653;50.848;4.584;2023-01-08T16:02:51;11.40;99.90
22974;DHT22;11653;50.848;4.584;2023-01-08T16:05:19;11.40;99.90
22974;DHT22;11653;50.848;4.584;2023-01-08T16:07:45;11.40;99.90
22974;DHT22;11653;50.848;4.584;2023-01-08T16:10:11;11.20;99.90
22974;DHT22;11653;50.848;4.584;2023-01-08T16:12:37;11.20;99.90
22974;DHT22;11653;50.848;4.584;2023-01-08T16:15:03;11.20;99.90
22974;DHT22;11653;50.848;4.584;2023-01-08T16:17:33;11.20;99.90
22974;DHT22;11653;50.848;4.584;2023-01-08T16:20:00;11.20;99.90
22974;DHT22;11653;50.848;4.584;2023-01-08T16:22:25;11.00;99.90
22974;DHT22;11653;50.848;4.584;2023-01-08T16:24:51;11.00;99.90
22974;DHT22;11653;50.848;4.584;2023-01-08T16:27:17;11.00;99.90
22974;DHT22;11653;50.848;4.584;2023-01-08T16:29:43;11.00;99.90
22974;DHT22;11653;50.848;4.584;2023-01-08T16:32:11;10.90;99.90
22974;DHT22;11653;50.848;4.584;2023-01-08T16:34:36;10.90;99.90
22974;DHT22;11653;50.848;4.584;2023-01-08T16:37:02;10.90;99.90
22974;DHT22;11653;50.848;4.584;2023-01-08T16:39:28;11.00;99.90
22974;DHT22;11653;50.848;4.584;2023-01-08T16:41:53;11.00;99.90
22974;DHT22;11653;50.848;4.584;2023-01-08T16:44:21;11.00;99.90
22974;DHT22;11653;50.848;4.584;2023-01-08T16:46:47;10.90;99.90
22974;DHT22;11653;50.848;4.584;2023-01-08T16:49:13;10.80;99.90
22974;DHT22;11653;50.848;4.584;2023-01-08T16:51:40;10.70;99.90
22974;DHT22;11653;50.848;4.584;2023-01-08T16:54:09;10.50;99.90
22974;DHT22;11653;50.848;4.584;2023-01-08T16:56:35;10.50;99.90
22974;DHT22;11653;50.848;4.584;2023-01-08T16:59:01;10.50;99.90
22974;DHT22;11653;50.848;4.584;2023-01-08T17:01:27;10.50;99.90
22974;DHT22;11653;50.848;4.584;2023-01-08T17:03:52;10.40;99.90